Time;durP1;ratioP1;P1;durP2;ratioP2;P2;SDS_P1;SDS_P2;PMS_P1;PMS_P2;Temp;Humidity;BMP_temperature;BMP_pressure;BME280_temperature;BME280_humidity;BME280_pressure;Samples;Min_cycle;Max_cycle;Signal;HPM_P1;HPM_P2
2022/04/30 00:02:09;;;;;;;3.30;2.13;;;;;;;;;;4797415;29;20042;-84
2022/04/30 00:04:39;;;;;;;3.90;1.75;;;;;;;;;;4803341;29;20094;-82
2022/04/30 00:07:05;;;;;;;4.47;2.00;;;;;;;;;;4798445;29;20038;-83
2022/04/30 00:09:31;;;;;;;5.10;2.45;;;;;;;;;;4798718;29;20039;-83
2022/04/30 00:11:57;;;;;;;4.28;2.15;;;;;;;;;;4786219;29;20405;-84
2022/04/30 00:14:24;;;;;;;4.38;2.10;;;;;;;;;;4800335;29;20038;-81
2022/04/30 00:16:49;;;;;;;4.28;2.15;;;;;;;;;;4801370;29;20385;-82
2022/04/30 00:19:15;;;;;;;3.35;2.05;;;;;;;;;;4782673;29;20042;-81
2022/04/30 00:21:41;;;;;;;5.15;2.22;;;;;;;;;;4802713;29;20471;-83
2022/04/30 00:24:07;;;;;;;4.43;2.20;;;;;;;;;;4801910;29;21769;-83
2022/04/30 00:26:32;;;;;;;4.43;2.30;;;;;;;;;;4787902;29;20489;-82
2022/04/30 00:28:58;;;;;;;4.03;2.20;;;;;;;;;;4782736;29;20027;-82
2022/04/30 00:31:25;;;;;;;4.65;2.00;;;;;;;;;;4799159;29;20135;-83
2022/04/30 00:33:51;;;;;;;4.45;2.03;;;;;;;;;;4795804;29;20405;-82
2022/04/30 00:36:16;;;;;;;3.80;2.20;;;;;;;;;;4784332;29;20039;-83
2022/04/30 00:38:42;;;;;;;5.97;2.35;;;;;;;;;;4788250;29;20510;-83
2022/04/30 00:41:08;;;;;;;3.00;1.80;;;;;;;;;;4800684;29;20180;-83
2022/04/30 00:43:47;;;;;;;4.32;2.53;;;;;;;;;;4800891;29;20026;-84
2022/04/30 00:46:17;;;;;;;4.70;2.20;;;;;;;;;;4797923;29;20508;-83
2022/04/30 00:48:43;;;;;;;3.75;2.20;;;;;;;;;;4797208;29;20038;-83
2022/04/30 00:51:10;;;;;;;5.00;2.13;;;;;;;;;;4784520;29;20035;-84
2022/04/30 00:53:41;;;;;;;4.20;2.08;;;;;;;;;;4798609;29;20176;-81
2022/04/30 00:56:14;;;;;;;5.28;2.70;;;;;;;;;;4800402;29;20069;-83
2022/04/30 00:58:45;;;;;;;3.72;2.25;;;;;;;;;;4785870;29;20971;-81
2022/04/30 01:01:11;;;;;;;4.95;2.35;;;;;;;;;;4784534;29;20506;-83
2022/04/30 01:03:37;;;;;;;2.88;1.80;;;;;;;;;;4804116;29;20063;-83
2022/04/30 01:06:04;;;;;;;5.25;2.60;;;;;;;;;;4800555;29;20585;-81
2022/04/30 01:08:30;;;;;;;3.58;2.30;;;;;;;;;;4793199;29;20130;-81
2022/04/30 01:11:00;;;;;;;4.97;2.70;;;;;;;;;;4795450;29;20044;-83
2022/04/30 01:13:28;;;;;;;4.28;2.33;;;;;;;;;;4796926;29;20375;-82
2022/04/30 01:15:58;;;;;;;4.68;2.17;;;;;;;;;;4795976;29;20042;-83
2022/04/30 01:18:25;;;;;;;5.05;2.70;;;;;;;;;;4785829;29;20042;-81
2022/04/30 01:20:53;;;;;;;6.03;2.58;;;;;;;;;;4798709;29;20630;-82
2022/04/30 01:23:18;;;;;;;4.20;2.55;;;;;;;;;;4798871;29;20126;-80
2022/04/30 01:25:46;;;;;;;5.65;2.42;;;;;;;;;;4795573;29;20113;-81
2022/04/30 01:28:12;;;;;;;3.75;2.13;;;;;;;;;;4798676;29;20490;-83
2022/04/30 01:30:37;;;;;;;5.03;2.53;;;;;;;;;;4800364;29;20033;-82
2022/04/30 01:38:31;;;;;;;5.70;2.70;;;;;;;;;;4797284;29;20437;-83
2022/04/30 01:40:56;;;;;;;4.13;2.72;;;;;;;;;;4799418;29;20039;-83
2022/04/30 01:43:22;;;;;;;6.05;2.70;;;;;;;;;;4798495;29;20108;-83
2022/04/30 01:45:48;;;;;;;4.88;2.75;;;;;;;;;;4795355;29;20046;-82
2022/04/30 01:48:14;;;;;;;3.97;2.58;;;;;;;;;;4783390;29;20169;-82
2022/04/30 01:50:43;;;;;;;4.35;2.60;;;;;;;;;;4793601;29;20072;-83
2022/04/30 01:53:09;;;;;;;4.95;2.70;;;;;;;;;;4798706;29;20091;-81
2022/04/30 01:55:36;;;;;;;4.80;2.95;;;;;;;;;;4784874;29;20046;-83
2022/04/30 01:58:01;;;;;;;4.38;2.88;;;;;;;;;;4796056;29;20020;-83
2022/04/30 02:00:27;;;;;;;5.18;3.00;;;;;;;;;;4797720;29;20137;-83
2022/04/30 02:02:54;;;;;;;4.82;2.70;;;;;;;;;;4794890;29;20392;-83
2022/04/30 02:05:20;;;;;;;4.30;2.83;;;;;;;;;;4794946;29;20375;-84
2022/04/30 02:07:49;;;;;;;4.18;2.80;;;;;;;;;;4784329;29;20085;-83
2022/04/30 02:10:15;;;;;;;6.53;3.40;;;;;;;;;;4798388;29;20034;-83
2022/04/30 02:12:41;;;;;;;5.63;3.00;;;;;;;;;;4794988;29;20398;-83
2022/04/30 02:15:08;;;;;;;4.00;2.38;;;;;;;;;;4798015;29;20474;-83
2022/04/30 02:17:38;;;;;;;5.55;3.60;;;;;;;;;;4796522;29;20027;-81
2022/04/30 02:20:25;;;;;;;4.90;2.95;;;;;;;;;;4783812;29;20390;-83
2022/04/30 02:22:54;;;;;;;5.78;2.92;;;;;;;;;;4783438;29;20028;-83
2022/04/30 02:25:21;;;;;;;6.03;2.90;;;;;;;;;;4796843;29;20509;-82
2022/04/30 02:27:51;;;;;;;5.90;2.83;;;;;;;;;;4796129;29;20521;-82
2022/04/30 02:30:18;;;;;;;6.13;3.08;;;;;;;;;;4780107;29;20041;-83
2022/04/30 02:32:56;;;;;;;4.63;2.75;;;;;;;;;;4797280;29;20030;-81
2022/04/30 02:35:24;;;;;;;5.10;2.92;;;;;;;;;;4799460;29;20038;-84
2022/04/30 02:37:52;;;;;;;5.10;3.17;;;;;;;;;;4781055;29;20035;-83
2022/04/30 02:40:20;;;;;;;5.18;3.10;;;;;;;;;;4802637;29;20087;-83
2022/04/30 02:42:46;;;;;;;5.70;3.35;;;;;;;;;;4783630;29;20034;-83
2022/04/30 02:45:15;;;;;;;6.05;3.42;;;;;;;;;;4792825;29;20266;-83
2022/04/30 02:47:46;;;;;;;5.22;3.00;;;;;;;;;;4794960;29;20049;-80
2022/04/30 02:50:13;;;;;;;6.40;3.10;;;;;;;;;;4794665;29;20485;-84
2022/04/30 02:52:41;;;;;;;5.82;3.22;;;;;;;;;;4796016;29;20027;-82
2022/04/30 02:55:07;;;;;;;6.50;3.50;;;;;;;;;;4800355;29;20031;-83
2022/04/30 03:00:29;;;;;;;4.93;2.90;;;;;;;;;;4799125;29;20095;-82
2022/04/30 03:02:56;;;;;;;6.20;3.63;;;;;;;;;;4781285;29;20390;-84
2022/04/30 03:05:21;;;;;;;7.07;3.38;;;;;;;;;;4780266;29;20065;-83
2022/04/30 03:07:47;;;;;;;6.25;3.10;;;;;;;;;;4783893;29;20034;-81
2022/04/30 03:10:13;;;;;;;7.28;3.30;;;;;;;;;;4796957;29;20031;-82
2022/04/30 03:12:39;;;;;;;6.85;2.92;;;;;;;;;;4792996;29;20564;-84
2022/04/30 03:15:06;;;;;;;6.50;3.63;;;;;;;;;;4785053;29;20066;-81
2022/04/30 03:22:59;;;;;;;6.07;3.45;;;;;;;;;;4796859;29;20041;-81
2022/04/30 03:25:24;;;;;;;5.95;3.63;;;;;;;;;;4793412;29;20027;-82
2022/04/30 03:27:49;;;;;;;5.45;2.95;;;;;;;;;;4798219;29;20038;-83
2022/04/30 03:30:15;;;;;;;7.53;3.72;;;;;;;;;;4794605;29;20546;-84
2022/04/30 03:32:42;;;;;;;5.95;3.28;;;;;;;;;;4796934;29;20089;-80
2022/04/30 03:35:11;;;;;;;6.30;3.50;;;;;;;;;;4797368;29;20033;-82
2022/04/30 03:37:36;;;;;;;6.00;3.33;;;;;;;;;;4797994;29;20035;-81
2022/04/30 03:40:04;;;;;;;6.13;3.58;;;;;;;;;;4791873;29;20099;-83
2022/04/30 03:42:30;;;;;;;7.95;3.85;;;;;;;;;;4780803;29;20042;-84
2022/04/30 03:44:56;;;;;;;6.20;3.08;;;;;;;;;;4798209;29;20047;-81
2022/04/30 03:47:22;;;;;;;6.25;3.72;;;;;;;;;;4793352;29;20100;-82
2022/04/30 03:49:47;;;;;;;7.55;3.65;;;;;;;;;;4780214;29;20027;-81
2022/04/30 03:52:12;;;;;;;6.38;3.67;;;;;;;;;;4796970;29;20031;-83
2022/04/30 03:54:39;;;;;;;6.72;3.95;;;;;;;;;;4783869;29;20512;-82
2022/04/30 03:57:06;;;;;;;5.85;3.60;;;;;;;;;;4774897;29;20046;-83
2022/04/30 03:59:32;;;;;;;7.47;3.75;;;;;;;;;;4779545;29;20027;-82
2022/04/30 04:01:58;;;;;;;5.07;3.47;;;;;;;;;;4781573;29;20092;-83
2022/04/30 04:04:23;;;;;;;7.57;3.42;;;;;;;;;;4782116;29;20031;-81
2022/04/30 04:06:49;;;;;;;6.63;3.80;;;;;;;;;;4781427;29;20045;-81
2022/04/30 04:09:14;;;;;;;7.57;4.22;;;;;;;;;;4798478;29;20050;-83
2022/04/30 04:11:39;;;;;;;6.07;3.72;;;;;;;;;;4782009;29;20118;-82
2022/04/30 04:19:33;;;;;;;5.65;3.22;;;;;;;;;;4798509;29;20047;-82
2022/04/30 04:21:58;;;;;;;6.88;3.97;;;;;;;;;;4783597;29;20039;-83
2022/04/30 04:27:08;;;;;;;5.80;3.80;;;;;;;;;;4799538;29;20041;-81
2022/04/30 04:29:33;;;;;;;7.90;3.78;;;;;;;;;;4785993;29;20490;-83
2022/04/30 04:31:58;;;;;;;5.95;3.35;;;;;;;;;;4796198;29;20034;-83
2022/04/30 04:34:24;;;;;;;7.00;3.53;;;;;;;;;;4795422;29;20408;-82
2022/04/30 04:36:49;;;;;;;8.18;3.95;;;;;;;;;;4795688;29;20049;-82
2022/04/30 04:39:15;;;;;;;6.00;3.17;;;;;;;;;;4785879;29;20054;-80
2022/04/30 04:41:42;;;;;;;6.22;3.47;;;;;;;;;;4800096;29;20511;-84
2022/04/30 04:44:09;;;;;;;6.80;4.00;;;;;;;;;;4796302;29;20034;-83
2022/04/30 04:46:35;;;;;;;7.97;3.90;;;;;;;;;;4798637;29;20038;-81
2022/04/30 04:49:00;;;;;;;7.03;3.83;;;;;;;;;;4785004;29;20079;-81
2022/04/30 04:51:27;;;;;;;5.82;3.92;;;;;;;;;;4784394;29;20117;-82
2022/04/30 04:53:53;;;;;;;8.52;4.35;;;;;;;;;;4798265;29;20039;-82
2022/04/30 04:56:20;;;;;;;6.97;3.92;;;;;;;;;;4783777;29;20083;-83
2022/04/30 04:58:45;;;;;;;7.43;4.05;;;;;;;;;;4795243;29;20038;-83
2022/04/30 05:01:10;;;;;;;6.65;3.97;;;;;;;;;;4785792;29;20046;-81
2022/04/30 05:03:36;;;;;;;7.68;4.32;;;;;;;;;;4786477;29;20409;-84
2022/04/30 05:06:01;;;;;;;6.20;3.55;;;;;;;;;;4782918;29;20045;-82
2022/04/30 05:08:26;;;;;;;6.38;3.60;;;;;;;;;;4798903;29;20134;-81
2022/04/30 05:10:52;;;;;;;8.05;3.88;;;;;;;;;;4800377;29;20047;-83
2022/04/30 05:13:17;;;;;;;5.85;3.45;;;;;;;;;;4796874;29;20506;-84
2022/04/30 05:15:43;;;;;;;5.93;3.65;;;;;;;;;;4797066;29;20038;-84
2022/04/30 05:18:08;;;;;;;5.60;3.50;;;;;;;;;;4799516;29;20062;-84
2022/04/30 05:20:34;;;;;;;6.90;3.78;;;;;;;;;;4796826;29;20034;-82
2022/04/30 05:23:00;;;;;;;5.18;3.70;;;;;;;;;;4780816;29;20034;-81
2022/04/30 05:25:25;;;;;;;7.25;3.92;;;;;;;;;;4783317;29;20034;-84
2022/04/30 05:27:50;;;;;;;8.07;3.85;;;;;;;;;;4783915;29;20034;-84
2022/04/30 05:30:16;;;;;;;5.63;3.70;;;;;;;;;;4783581;29;20129;-81
2022/04/30 05:32:41;;;;;;;7.00;4.35;;;;;;;;;;4784184;29;20038;-84
2022/04/30 05:35:07;;;;;;;8.25;4.13;;;;;;;;;;4781581;29;20045;-84
2022/04/30 05:37:33;;;;;;;5.72;3.83;;;;;;;;;;4777982;29;20505;-80
2022/04/30 05:39:58;;;;;;;8.32;4.18;;;;;;;;;;4798952;29;20047;-80
2022/04/30 05:42:27;;;;;;;7.40;4.10;;;;;;;;;;4795788;29;20286;-84
2022/04/30 05:44:52;;;;;;;7.43;4.25;;;;;;;;;;4784610;29;20489;-82
2022/04/30 05:47:18;;;;;;;6.80;3.92;;;;;;;;;;4783714;29;20034;-81
2022/04/30 05:49:43;;;;;;;8.35;4.30;;;;;;;;;;4778277;29;20027;-83
2022/04/30 05:52:14;;;;;;;5.88;3.67;;;;;;;;;;4803965;29;20027;-83
2022/04/30 05:54:40;;;;;;;9.02;4.78;;;;;;;;;;4798368;29;20551;-83
2022/04/30 05:57:23;;;;;;;8.15;4.20;;;;;;;;;;4784554;29;20026;-81
2022/04/30 05:59:48;;;;;;;8.18;4.60;;;;;;;;;;4796495;29;20030;-81
2022/04/30 06:02:14;;;;;;;8.05;4.35;;;;;;;;;;4794452;29;20545;-83
2022/04/30 06:04:39;;;;;;;6.93;4.55;;;;;;;;;;4798800;29;20066;-83
2022/04/30 06:07:04;;;;;;;7.80;4.22;;;;;;;;;;4799609;29;20622;-82
2022/04/30 06:09:30;;;;;;;7.35;4.28;;;;;;;;;;4783170;29;20065;-83
2022/04/30 06:11:55;;;;;;;6.75;4.32;;;;;;;;;;4791215;29;20031;-82
2022/04/30 06:14:20;;;;;;;8.68;4.78;;;;;;;;;;4794807;29;20082;-83
2022/04/30 06:16:46;;;;;;;6.90;4.40;;;;;;;;;;4799111;29;20440;-81
2022/04/30 06:19:12;;;;;;;7.97;4.38;;;;;;;;;;4795329;29;20092;-83
2022/04/30 06:21:37;;;;;;;8.10;4.47;;;;;;;;;;4799358;29;20038;-82
2022/04/30 06:24:03;;;;;;;7.57;4.30;;;;;;;;;;4800451;29;20512;-80
2022/04/30 06:26:28;;;;;;;6.95;4.40;;;;;;;;;;4798943;29;20034;-83
2022/04/30 06:28:55;;;;;;;7.43;4.30;;;;;;;;;;4780650;29;20034;-82
2022/04/30 06:31:22;;;;;;;6.43;4.13;;;;;;;;;;4802239;29;20034;-81
2022/04/30 06:33:48;;;;;;;8.25;4.65;;;;;;;;;;4798304;29;20880;-82
2022/04/30 06:36:13;;;;;;;7.78;4.43;;;;;;;;;;4797275;29;20038;-80
2022/04/30 06:38:39;;;;;;;8.35;4.32;;;;;;;;;;4798518;29;20055;-84
2022/04/30 06:41:04;;;;;;;6.55;4.53;;;;;;;;;;4780992;29;20039;-84
2022/04/30 06:43:29;;;;;;;8.40;4.22;;;;;;;;;;4782760;29;20034;-84
2022/04/30 06:45:55;;;;;;;8.73;4.50;;;;;;;;;;4796600;29;20413;-82
2022/04/30 06:48:20;;;;;;;7.05;4.15;;;;;;;;;;4797330;29;20084;-80
2022/04/30 06:50:47;;;;;;;5.72;4.00;;;;;;;;;;4788374;29;20031;-83
2022/04/30 06:59:38;;;;;;;8.82;4.00;;;;;;;;;;4799128;29;20497;-83
2022/04/30 07:02:30;;;;;;;6.03;3.65;;;;;;;;;;4744955;29;20073;-79
2022/04/30 07:04:55;;;;;;;5.85;3.75;;;;;;;;;;4794587;29;20042;-81
2022/04/30 07:07:21;;;;;;;6.75;4.05;;;;;;;;;;4793693;29;20031;-81
2022/04/30 07:09:48;;;;;;;6.70;3.92;;;;;;;;;;4795797;29;20465;-81
2022/04/30 07:12:14;;;;;;;6.63;4.20;;;;;;;;;;4785175;29;20030;-84
2022/04/30 07:14:55;;;;;;;9.30;4.43;;;;;;;;;;4794852;29;20077;-82
2022/04/30 07:21:00;;;;;;;6.50;3.83;;;;;;;;;;4802143;29;20520;-83
2022/04/30 07:23:25;;;;;;;6.40;3.85;;;;;;;;;;4783072;29;20058;-83
2022/04/30 07:25:51;;;;;;;7.20;3.95;;;;;;;;;;4799221;29;20031;-80
2022/04/30 07:28:16;;;;;;;6.72;3.88;;;;;;;;;;4799253;29;20065;-82
2022/04/30 07:30:42;;;;;;;6.35;3.60;;;;;;;;;;4779178;29;20031;-81
2022/04/30 07:33:07;;;;;;;6.60;3.83;;;;;;;;;;4781941;29;20038;-81
2022/04/30 07:35:33;;;;;;;7.72;4.28;;;;;;;;;;4788209;29;20027;-80
2022/04/30 07:37:58;;;;;;;5.85;4.10;;;;;;;;;;4774770;29;20505;-83
2022/04/30 07:40:24;;;;;;;7.13;4.13;;;;;;;;;;4764481;29;20051;-80
2022/04/30 07:42:59;;;;;;;6.18;4.15;;;;;;;;;;4782967;29;20068;-83
2022/04/30 07:45:24;;;;;;;6.55;4.03;;;;;;;;;;4780003;29;20035;-82
2022/04/30 07:47:49;;;;;;;7.53;3.90;;;;;;;;;;4755418;29;20039;-84
2022/04/30 07:50:17;;;;;;;8.10;4.03;;;;;;;;;;4771299;29;20039;-82
2022/04/30 07:52:42;;;;;;;7.82;4.07;;;;;;;;;;4772806;29;20569;-80
2022/04/30 07:55:07;;;;;;;7.57;4.28;;;;;;;;;;4765718;29;20040;-83
2022/04/30 07:57:33;;;;;;;8.77;3.42;;;;;;;;;;4776185;29;20053;-82
2022/04/30 07:59:58;;;;;;;5.35;3.55;;;;;;;;;;4761360;29;20173;-83
2022/04/30 08:02:24;;;;;;;5.82;3.42;;;;;;;;;;4775134;29;20091;-82
2022/04/30 08:04:49;;;;;;;5.80;3.28;;;;;;;;;;4774023;29;20095;-83
2022/04/30 08:07:14;;;;;;;4.97;3.22;;;;;;;;;;4762933;29;20039;-82
2022/04/30 08:09:40;;;;;;;6.05;3.83;;;;;;;;;;4777943;29;20050;-82
2022/04/30 08:12:06;;;;;;;7.05;3.47;;;;;;;;;;4776516;29;20066;-83
2022/04/30 08:14:31;;;;;;;5.90;3.70;;;;;;;;;;4778120;29;20446;-83
2022/04/30 08:16:56;;;;;;;5.20;3.38;;;;;;;;;;4763927;29;20130;-82
2022/04/30 08:19:22;;;;;;;6.97;3.60;;;;;;;;;;4766900;29;20042;-85
2022/04/30 08:21:48;;;;;;;7.45;3.72;;;;;;;;;;4772328;29;20035;-84
2022/04/30 08:24:14;;;;;;;4.70;3.15;;;;;;;;;;4781232;29;20034;-84
2022/04/30 08:26:40;;;;;;;5.57;3.53;;;;;;;;;;4781300;29;20027;-84
2022/04/30 08:29:06;;;;;;;7.55;3.92;;;;;;;;;;4768612;29;20050;-82
2022/04/30 08:31:32;;;;;;;6.32;3.88;;;;;;;;;;4779038;29;20668;-85
2022/04/30 08:33:58;;;;;;;6.35;3.67;;;;;;;;;;4777574;29;20035;-83
2022/04/30 08:36:23;;;;;;;6.88;4.00;;;;;;;;;;4761231;30;20043;-81
2022/04/30 08:38:48;;;;;;;4.75;3.28;;;;;;;;;;4780977;29;20138;-81
2022/04/30 08:41:14;;;;;;;6.68;4.07;;;;;;;;;;4790967;29;20026;-82
2022/04/30 08:43:40;;;;;;;5.95;3.97;;;;;;;;;;4779506;29;20035;-81
2022/04/30 08:46:06;;;;;;;5.72;3.72;;;;;;;;;;4787062;29;20711;-82
2022/04/30 08:48:31;;;;;;;6.55;3.80;;;;;;;;;;4780248;29;20137;-81
2022/04/30 08:50:57;;;;;;;6.80;4.30;;;;;;;;;;4798730;29;20497;-83
2022/04/30 08:53:22;;;;;;;6.70;4.15;;;;;;;;;;4793020;29;20065;-81
2022/04/30 08:55:48;;;;;;;8.25;4.05;;;;;;;;;;4779632;29;20038;-84
2022/04/30 08:58:15;;;;;;;8.38;3.95;;;;;;;;;;4788652;29;20046;-82
2022/04/30 09:00:42;;;;;;;8.77;4.38;;;;;;;;;;4790743;29;20038;-83
2022/04/30 09:03:08;;;;;;;8.23;4.55;;;;;;;;;;4789577;29;20860;-81
2022/04/30 09:05:35;;;;;;;5.20;3.63;;;;;;;;;;4773090;29;20066;-81
2022/04/30 09:08:01;;;;;;;5.82;3.67;;;;;;;;;;4791528;29;20035;-83
2022/04/30 09:10:29;;;;;;;5.70;4.07;;;;;;;;;;4775844;29;20088;-82
2022/04/30 09:13:05;;;;;;;8.05;4.10;;;;;;;;;;4789000;29;20037;-82
2022/04/30 09:15:31;;;;;;;6.82;4.28;;;;;;;;;;4795253;29;20045;-83
2022/04/30 09:18:02;;;;;;;7.40;4.07;;;;;;;;;;4786845;29;20200;-83
2022/04/30 09:20:30;;;;;;;6.75;3.72;;;;;;;;;;4786466;29;20039;-82
2022/04/30 09:22:56;;;;;;;5.47;3.50;;;;;;;;;;4777331;29;20490;-81
2022/04/30 09:26:16;;;;;;;5.55;3.38;;;;;;;;;;4787386;29;20058;-84
2022/04/30 09:28:48;;;;;;;6.78;3.40;;;;;;;;;;4784759;29;20157;-82
2022/04/30 09:31:16;;;;;;;6.55;3.55;;;;;;;;;;4770738;29;20426;-80
2022/04/30 09:33:50;;;;;;;6.65;3.65;;;;;;;;;;4783610;29;20494;-81
2022/04/30 09:39:13;;;;;;;6.72;3.53;;;;;;;;;;4799050;29;20548;-84
2022/04/30 09:41:39;;;;;;;7.10;3.90;;;;;;;;;;4796326;29;20054;-83
2022/04/30 09:44:06;;;;;;;5.72;3.78;;;;;;;;;;4794140;29;20034;-82
2022/04/30 09:46:37;;;;;;;5.82;3.60;;;;;;;;;;4785214;29;20534;-82
2022/04/30 09:54:37;;;;;;;6.05;3.38;;;;;;;;;;4794093;29;20158;-80
2022/04/30 09:57:07;;;;;;;6.53;3.55;;;;;;;;;;4801816;29;20496;-82
2022/04/30 09:59:35;;;;;;;6.57;3.40;;;;;;;;;;4802099;29;20509;-80
2022/04/30 10:02:04;;;;;;;5.60;3.50;;;;;;;;;;4796700;29;20023;-83
2022/04/30 10:04:30;;;;;;;5.40;3.65;;;;;;;;;;4797401;29;20405;-80
2022/04/30 10:07:00;;;;;;;7.22;4.28;;;;;;;;;;4808395;29;20037;-82
2022/04/30 10:09:44;;;;;;;6.40;3.55;;;;;;;;;;4782670;29;20414;-80
2022/04/30 10:12:26;;;;;;;7.20;3.90;;;;;;;;;;4786458;29;20031;-80
2022/04/30 10:14:55;;;;;;;8.68;4.00;;;;;;;;;;4794419;29;20084;-82
2022/04/30 10:17:23;;;;;;;5.57;3.65;;;;;;;;;;4802073;29;20082;-80
2022/04/30 10:19:59;;;;;;;5.30;3.60;;;;;;;;;;4784384;29;20134;-79
2022/04/30 10:22:25;;;;;;;7.03;3.78;;;;;;;;;;4801347;29;20030;-81
2022/04/30 10:24:54;;;;;;;5.63;3.72;;;;;;;;;;4797219;29;20503;-80
2022/04/30 10:27:20;;;;;;;5.35;3.17;;;;;;;;;;4793394;29;20497;-83
2022/04/30 10:29:59;;;;;;;6.60;3.70;;;;;;;;;;4795800;29;20035;-80
2022/04/30 10:32:32;;;;;;;4.78;3.10;;;;;;;;;;4785645;29;20037;-83
2022/04/30 10:34:59;;;;;;;6.40;3.70;;;;;;;;;;4798511;29;20079;-82
2022/04/30 10:37:28;;;;;;;7.00;3.90;;;;;;;;;;4797974;29;20034;-80
2022/04/30 10:40:18;;;;;;;5.68;3.45;;;;;;;;;;4800836;29;20515;-83
2022/04/30 10:42:45;;;;;;;4.72;2.88;;;;;;;;;;4806350;29;20505;-82
2022/04/30 10:45:15;;;;;;;10.05;3.13;;;;;;;;;;4786944;29;20038;-80
2022/04/30 10:47:54;;;;;;;5.32;3.30;;;;;;;;;;4787728;29;20018;-82
2022/04/30 10:50:20;;;;;;;5.43;3.17;;;;;;;;;;4802434;29;20034;-81
2022/04/30 10:52:48;;;;;;;7.05;3.75;;;;;;;;;;4788405;29;20130;-82
2022/04/30 10:55:14;;;;;;;6.82;3.42;;;;;;;;;;4803196;29;20114;-82
2022/04/30 10:57:41;;;;;;;6.22;3.55;;;;;;;;;;4780812;29;20046;-82
2022/04/30 11:00:08;;;;;;;5.55;3.60;;;;;;;;;;4802654;29;20026;-81
2022/04/30 11:02:34;;;;;;;4.80;3.28;;;;;;;;;;4803617;29;20035;-80
2022/04/30 11:05:01;;;;;;;5.55;3.70;;;;;;;;;;4799978;29;20034;-81
2022/04/30 11:07:28;;;;;;;7.18;3.75;;;;;;;;;;4792938;29;20120;-81
2022/04/30 11:09:53;;;;;;;4.63;3.33;;;;;;;;;;4801362;29;20579;-81
2022/04/30 11:12:18;;;;;;;6.25;3.67;;;;;;;;;;4802761;29;20046;-82
2022/04/30 11:14:45;;;;;;;6.35;3.53;;;;;;;;;;4797695;29;20027;-80
2022/04/30 11:17:10;;;;;;;5.20;3.35;;;;;;;;;;4807258;29;20093;-82
2022/04/30 11:19:42;;;;;;;4.95;3.17;;;;;;;;;;4787437;29;20027;-80
2022/04/30 11:22:09;;;;;;;7.03;3.78;;;;;;;;;;4786574;29;20474;-82
2022/04/30 11:24:37;;;;;;;5.07;3.47;;;;;;;;;;4799514;29;20051;-81
2022/04/30 11:27:05;;;;;;;5.38;3.20;;;;;;;;;;4806168;29;20034;-81
2022/04/30 11:29:35;;;;;;;4.47;3.10;;;;;;;;;;4799264;29;20042;-82
2022/04/30 11:32:01;;;;;;;4.75;3.30;;;;;;;;;;4796659;29;20023;-81
2022/04/30 11:34:26;;;;;;;6.15;3.60;;;;;;;;;;4803188;29;20113;-79
2022/04/30 11:36:54;;;;;;;6.35;3.63;;;;;;;;;;4803939;29;20200;-81
2022/04/30 11:39:21;;;;;;;5.55;3.90;;;;;;;;;;4811048;29;20047;-78
2022/04/30 11:41:48;;;;;;;6.30;4.05;;;;;;;;;;4808898;29;20031;-82
2022/04/30 11:44:16;;;;;;;8.00;3.75;;;;;;;;;;4807671;29;20148;-81
2022/04/30 11:46:44;;;;;;;8.45;3.83;;;;;;;;;;4807434;29;20045;-79
2022/04/30 11:49:14;;;;;;;6.38;3.60;;;;;;;;;;4808893;29;20046;-80
2022/04/30 11:51:40;;;;;;;6.72;3.42;;;;;;;;;;4797000;29;20029;-79
2022/04/30 11:54:08;;;;;;;8.20;3.42;;;;;;;;;;4802244;29;20039;-79
2022/04/30 11:56:38;;;;;;;4.65;3.20;;;;;;;;;;4804156;29;20031;-81
2022/04/30 11:59:10;;;;;;;4.95;3.25;;;;;;;;;;4802046;29;20096;-81
2022/04/30 12:01:41;;;;;;;5.50;3.60;;;;;;;;;;4805210;29;20129;-79
2022/04/30 12:04:11;;;;;;;6.68;3.60;;;;;;;;;;4805722;29;20547;-80
2022/04/30 12:06:38;;;;;;;6.25;3.70;;;;;;;;;;4801335;29;20031;-82
2022/04/30 12:09:31;;;;;;;4.90;3.50;;;;;;;;;;4811882;29;20031;-80
2022/04/30 12:11:58;;;;;;;5.45;3.10;;;;;;;;;;4803872;29;20031;-81
2022/04/30 12:14:24;;;;;;;7.13;3.35;;;;;;;;;;4790449;29;20035;-80
2022/04/30 12:16:51;;;;;;;5.53;3.25;;;;;;;;;;4805508;29;20030;-82
2022/04/30 12:25:04;;;;;;;5.97;3.05;;;;;;;;;;4797748;29;20401;-79
2022/04/30 12:27:30;;;;;;;5.95;3.38;;;;;;;;;;4799897;29;20041;-80
2022/04/30 12:30:09;;;;;;;4.60;2.97;;;;;;;;;;4806642;29;20401;-79
2022/04/30 12:32:49;;;;;;;5.05;3.05;;;;;;;;;;4808114;29;20482;-80
2022/04/30 12:35:22;;;;;;;5.20;3.05;;;;;;;;;;4804664;29;20026;-82
2022/04/30 12:37:47;;;;;;;5.18;3.30;;;;;;;;;;4793422;29;20031;-81
2022/04/30 12:40:13;;;;;;;6.53;3.40;;;;;;;;;;4798769;29;20054;-80
2022/04/30 12:42:40;;;;;;;5.15;3.03;;;;;;;;;;4806775;29;20027;-79
2022/04/30 12:45:11;;;;;;;5.80;3.20;;;;;;;;;;4801749;29;20035;-82
2022/04/30 12:47:49;;;;;;;6.28;3.40;;;;;;;;;;4790828;29;20034;-81
2022/04/30 12:50:18;;;;;;;5.32;3.30;;;;;;;;;;4801726;29;20026;-80
2022/04/30 12:52:47;;;;;;;6.18;3.63;;;;;;;;;;4801499;29;21203;-79
2022/04/30 12:55:20;;;;;;;5.53;3.35;;;;;;;;;;4800745;29;20439;-80
2022/04/30 12:57:51;;;;;;;4.60;3.25;;;;;;;;;;4800321;29;20490;-80
2022/04/30 13:00:17;;;;;;;4.28;3.10;;;;;;;;;;4782305;29;20065;-81
2022/04/30 13:02:43;;;;;;;5.00;3.40;;;;;;;;;;4782395;29;20035;-81
2022/04/30 13:05:13;;;;;;;6.13;3.17;;;;;;;;;;4800869;29;20041;-80
2022/04/30 13:07:40;;;;;;;5.18;3.22;;;;;;;;;;4784961;29;20528;-80
2022/04/30 13:16:23;;;;;;;4.30;2.80;;;;;;;;;;4801748;29;20115;-80
2022/04/30 13:18:49;;;;;;;4.55;2.80;;;;;;;;;;4789606;29;20054;-80
2022/04/30 13:21:54;;;;;;;5.45;3.08;;;;;;;;;;4782264;29;20043;-81
2022/04/30 13:24:22;;;;;;;5.20;3.20;;;;;;;;;;4803202;29;20114;-80
2022/04/30 13:26:54;;;;;;;5.63;3.25;;;;;;;;;;4782987;29;20034;-79
2022/04/30 13:29:19;;;;;;;4.82;3.20;;;;;;;;;;4784888;29;20498;-79
2022/04/30 13:31:56;;;;;;;5.53;3.53;;;;;;;;;;4795323;29;20031;-81
2022/04/30 13:34:25;;;;;;;5.70;3.15;;;;;;;;;;4798964;29;20042;-82
2022/04/30 13:36:56;;;;;;;7.35;3.38;;;;;;;;;;4788750;29;20068;-83
2022/04/30 13:39:25;;;;;;;4.43;2.88;;;;;;;;;;4785337;29;20078;-80
2022/04/30 13:41:55;;;;;;;6.45;3.05;;;;;;;;;;4798958;29;20035;-79
2022/04/30 13:44:26;;;;;;;6.38;2.88;;;;;;;;;;4781029;29;20585;-80
2022/04/30 13:46:55;;;;;;;5.72;3.78;;;;;;;;;;4785193;29;20035;-79
2022/04/30 13:49:23;;;;;;;5.70;3.28;;;;;;;;;;4787479;29;20066;-82
2022/04/30 13:51:58;;;;;;;5.13;2.90;;;;;;;;;;4776309;29;20061;-80
2022/04/30 13:54:29;;;;;;;5.55;2.97;;;;;;;;;;4796753;29;20493;-79
2022/04/30 13:57:00;;;;;;;6.05;3.03;;;;;;;;;;4794114;29;20415;-79
2022/04/30 13:59:33;;;;;;;5.70;3.20;;;;;;;;;;4777179;29;20054;-81
2022/04/30 14:02:00;;;;;;;7.72;3.30;;;;;;;;;;4775841;29;20856;-80
2022/04/30 14:04:26;;;;;;;5.32;3.33;;;;;;;;;;4790625;29;20054;-81
2022/04/30 14:06:52;;;;;;;4.85;3.42;;;;;;;;;;4790068;29;20039;-80
2022/04/30 14:09:18;;;;;;;6.07;3.55;;;;;;;;;;4790831;29;20037;-80
2022/04/30 14:12:01;;;;;;;5.50;3.70;;;;;;;;;;4791614;29;20394;-79
2022/04/30 14:20:05;;;;;;;5.05;3.55;;;;;;;;;;4796664;29;20535;-79
2022/04/30 14:22:33;;;;;;;4.68;3.30;;;;;;;;;;4783674;29;20031;-81
2022/04/30 14:25:03;;;;;;;6.28;3.58;;;;;;;;;;4780629;29;20417;-81
2022/04/30 14:28:04;;;;;;;5.75;3.25;;;;;;;;;;4793896;29;20157;-81
2022/04/30 14:31:05;;;;;;;6.18;2.95;;;;;;;;;;4792935;29;20046;-81
2022/04/30 14:33:36;;;;;;;5.10;3.05;;;;;;;;;;4799997;29;20034;-80
2022/04/30 14:36:09;;;;;;;5.95;3.10;;;;;;;;;;4797375;29;20047;-82
2022/04/30 14:38:35;;;;;;;7.50;3.38;;;;;;;;;;4797312;29;20512;-80
2022/04/30 14:41:07;;;;;;;4.88;3.20;;;;;;;;;;4796901;29;20039;-80
2022/04/30 14:43:34;;;;;;;5.87;3.40;;;;;;;;;;4794253;29;20054;-81
2022/04/30 14:46:06;;;;;;;5.45;2.80;;;;;;;;;;4801454;29;20037;-80
2022/04/30 14:48:37;;;;;;;4.82;2.95;;;;;;;;;;4793383;29;20124;-81
2022/04/30 14:51:09;;;;;;;4.93;3.05;;;;;;;;;;4781118;29;20058;-81
2022/04/30 14:53:38;;;;;;;4.47;3.20;;;;;;;;;;4781022;29;20046;-81
2022/04/30 14:56:04;;;;;;;5.50;3.40;;;;;;;;;;4791812;29;20289;-80
2022/04/30 14:58:29;;;;;;;4.95;3.00;;;;;;;;;;4782456;29;20038;-80
2022/04/30 15:00:55;;;;;;;4.70;3.45;;;;;;;;;;4790443;29;20169;-82
2022/04/30 15:03:37;;;;;;;4.68;3.10;;;;;;;;;;4795175;29;20077;-79
2022/04/30 15:06:02;;;;;;;4.38;2.97;;;;;;;;;;4774709;29;20107;-82
2022/04/30 15:08:28;;;;;;;5.38;3.00;;;;;;;;;;4795157;29;20664;-80
2022/04/30 15:11:09;;;;;;;5.57;3.08;;;;;;;;;;4784126;29;20039;-79
2022/04/30 15:13:43;;;;;;;5.40;3.40;;;;;;;;;;4779579;29;20074;-80
2022/04/30 15:16:22;;;;;;;;;;;;;;;;;;;;;
2022/04/30 15:19:14;;;;;;;5.68;3.38;;;;;;;;;;4795011;29;20069;-80
2022/04/30 15:22:42;;;;;;;5.53;3.25;;;;;;;;;;4780539;29;20194;-82
2022/04/30 15:25:57;;;;;;;;;;;;;;;;;;;;;
2022/04/30 15:28:47;;;;;;;5.82;3.13;;;;;;;;;;4748828;30;20113;-80
2022/04/30 15:31:18;;;;;;;8.30;3.55;;;;;;;;;;4749494;30;20043;-82
2022/04/30 15:37:16;;;;;;;5.75;3.30;;;;;;;;;;4729099;30;20072;-82
2022/04/30 15:39:46;;;;;;;5.10;3.20;;;;;;;;;;4728677;30;20096;-82
2022/04/30 15:42:14;;;;;;;5.15;3.20;;;;;;;;;;4709718;30;20048;-82
2022/04/30 15:44:40;;;;;;;4.95;2.78;;;;;;;;;;4727182;30;20586;-83
2022/04/30 15:53:48;;;;;;;5.38;3.50;;;;;;;;;;4762315;30;20654;-81
2022/04/30 15:56:14;;;;;;;6.22;2.75;;;;;;;;;;4769106;30;20043;-80
2022/04/30 15:58:50;;;;;;;4.93;2.88;;;;;;;;;;4764764;30;20052;-79
2022/04/30 16:01:18;;;;;;;4.43;3.00;;;;;;;;;;4747172;30;20581;-83
2022/04/30 16:03:49;;;;;;;5.50;2.97;;;;;;;;;;4746827;29;20040;-82